Terminal Aerodrome Forecast
Issued by NWS

Home | Current Version | Previous Version | Text Only | Print | Product List | Glossary On
Versions: 1 2 3 4 5 6 7 8 9 10 11 12 13 14 15 16 17 18 19 20 21 22
792
FTUS41 KPBZ 241300 AAA
TAFAGC
TAF AMD
KAGC 241300Z 2413/2512 30008KT 5SM -RA BR OVC006
      TEMPO 2413/2415 2SM -RA BR OVC004
     FM241900 30010KT P6SM OVC010
     FM251000 22005KT P6SM OVC015=

USA.gov is the U.S. government's official web portal to all federal, state and local government web resources and services.